Comstock, Michigan
Current Conditions -  °F | °C
As of 5:53 PM on Wednesday 26 Nov 2014 (Local Time) from KAZO Reporting Station
Overcast Overcast  
Wind Chill: 28°   Ceiling: 3300
Heat Index: 28°   Visibility: 10mi
Dew Point: 20°   Wind: 0mph
Humidity: 72%   Direction: NA
Pressure: 30.11"   Gusts: NA
Location:  42.29°N, 85.51°W
Report Text: KAZO 262253Z 00000KT 10SM OVC033 M02/M07 A3011 RMK AO2 SLP208 T10221067
Loading
Personal Weather Stations






























Interactive Weather Map New forecast layout! Learn more

10-Day Weather Forecast

Advertisements
Track Severe Weather on mobile